Skip to main content.
 TIME   TEMPERATURE   WINDSPEED   DIRECTION   HUMIDITY   BAROMETER   RAINFALL 
6:25 26.0°C (78.8°F) 18.5 kmh (11.5 mph) SW 88% 1013.9hPa (29.94 inHg) 0.0mm (0.00 in.)
5:25 27.0°C (80.6 °F) 7.4 kmh (4.6 mph) SW 57% 1013.9hPa (29.94 inHg) 0.0mm (0.00 in.)
4:25 27.0°C (80.6 °F) 7.4 kmh (4.6 mph) SW 54% 1014.9hPa (29.97 inHg) 0.0mm (0.00 in.)
3:25 27.0°C (80.6 °F) 11.1 kmh (6.9 mph) SW 57% 1014.9hPa (29.97 inHg) 0.0mm (0.00 in.)
2:25 27.0°C (80.6 °F) 7.4 kmh (4.6 mph) SW 57% 1014.9hPa (29.97 inHg) 0.0mm (0.00 in.)
1:25 28.0°C (82.4 °F) 9.3 kmh (5.8 mph) SW 54% 1014.9hPa (29.97 inHg) 0.0mm (0.00 in.)
0:25 28.0°C (82.4 °F) 7.4 kmh (4.6 mph) WNW 58% 1014.9hPa (29.97 inHg) 0.0mm (0.00 in.)
23:24 28.0°C (82.4 °F) 7.4 kmh (4.6 mph) WNW 58% 1014.9hPa (29.97 inHg) 0.0mm (0.00 in.)
22:24 29.0°C (84.2 °F) 7.4 kmh (4.6 mph) WNW 58% 1014.9hPa (29.97 inHg) 0.0mm (0.00 in.)
21:24 30.0°C (86.0 °F) 3.7 kmh (2.3 mph) W 45% 1014.9hPa (29.97 inHg) 0.0mm (0.00 in.)
20:24 31.0°C (87.8 °F) 5.6 kmh (3.5 mph) NW 48% 1013.9hPa (29.94 inHg) 0.0mm (0.00 in.)
19:24 35.0°C (95.0 °F) 16.7 kmh (10.4 mph) N 30% 1014.9hPa (29.97 inHg) 0.0mm (0.00 in.)
18:24 36.0°C (96.8 °F) 16.7 kmh (10.4 mph) NNE 28% 1013.9hPa (29.94 inHg) 0.0mm (0.00 in.)
17:24 36.0°C (96.8 °F) 9.3 kmh (5.8 mph) SW 30% 1014.9hPa (29.97 inHg) 0.0mm (0.00 in.)
16:24 35.0°C (95.0 °F) 13.0 kmh (8.1 mph) SSW 46% 1014.9hPa (29.97 inHg) 0.0mm (0.00 in.)
15:23 35.0°C (95.0 °F) 16.7 kmh (10.4 mph) SSW 49% 1014.9hPa (29.97 inHg) 0.0mm (0.00 in.)
14:23 34.0°C (93.2 °F) 14.8 kmh (9.2 mph) SSW 49% 1014.9hPa (29.97 inHg) 0.0mm (0.00 in.)
13:23 38.0°C (100.4 °F) 11.1 kmh (6.9 mph) NNE 21% 1014.9hPa (29.97 inHg) 0.0mm (0.00 in.)
12:23 36.0°C (96.8 °F) 13.0 kmh (8.1 mph) N 25% 1015.9hPa (30.00 inHg) 0.0mm (0.00 in.)
11:23 35.0°C (95.0 °F) 11.1 kmh (6.9 mph) NNE 32% 1014.9hPa (29.97 inHg) 0.0mm (0.00 in.)
10:23 34.0°C (93.2 °F) 9.3 kmh (5.8 mph) NNE 38% 1014.9hPa (29.97 inHg) 0.0mm (0.00 in.)
9:23 32.0°C (89.6 °F) 9.3 kmh (5.8 mph) N 52% 1014.9hPa (29.97 inHg) 0.0mm (0.00 in.)
8:23 30.0°C (86.0 °F) 9.3 kmh (5.8 mph) N 68% 1014.9hPa (29.97 inHg) 0.0mm (0.00 in.)
7:23 27.0°C (80.6 °F) 9.3 kmh (5.8 mph) N 80% 1013.9hPa (29.94 inHg) 0.0mm (0.00 in.)